createdAt,value
2022-12-28T00:01:21.822Z,97203.34
2022-12-28T00:03:50.312Z,97198.91
2022-12-28T00:06:19.688Z,97198.34
2022-12-28T00:08:47.964Z,97197.69
2022-12-28T00:11:28.365Z,97196.75
2022-12-28T00:14:02.288Z,97196.03
2022-12-28T00:16:32.363Z,97196.47
2022-12-28T00:19:03.612Z,97196.75
2022-12-28T00:21:32.451Z,97192.75
2022-12-28T00:24:02.042Z,97199.16
2022-12-28T00:26:31.972Z,97194.44
2022-12-28T00:29:05.129Z,97191.81
2022-12-28T00:31:34.848Z,97195.91
2022-12-28T00:34:03.505Z,97190.69
2022-12-28T00:37:09.018Z,97192.38
2022-12-28T00:39:20.462Z,97205.09
2022-12-28T00:41:48.691Z,97201.38
2022-12-28T00:44:18.274Z,97191.47
2022-12-28T00:46:46.516Z,97197.72
2022-12-28T00:49:14.873Z,97192.41
2022-12-28T00:51:43.084Z,97187.81
2022-12-28T00:54:11.503Z,97180.91
2022-12-28T00:56:41.351Z,97174.19
2022-12-28T00:59:10.116Z,97176.69
2022-12-28T01:01:39.859Z,97172.31
2022-12-28T01:04:09.024Z,97179.25
2022-12-28T01:06:37.234Z,97177.91
2022-12-28T01:09:05.538Z,97178.75
2022-12-28T01:11:33.803Z,97174.53
2022-12-28T01:14:03.720Z,97174.47
2022-12-28T01:16:34.416Z,97169.50
2022-12-28T01:19:05.844Z,97175.22
2022-12-28T01:21:35.172Z,97176.22
2022-12-28T01:24:05.098Z,97179.31
2022-12-28T01:26:33.445Z,97168.03
2022-12-28T01:29:01.919Z,97176.34
2022-12-28T01:31:30.143Z,97182.69
2022-12-28T01:33:58.351Z,97190.97
2022-12-28T01:36:29.830Z,97192.22
2022-12-28T01:39:00.152Z,97193.69
2022-12-28T01:41:29.585Z,97186.22
2022-12-28T01:44:46.568Z,97174.09
2022-12-28T01:47:20.908Z,97175.13
2022-12-28T01:49:56.618Z,97166.91
2022-12-28T01:52:30.606Z,97162.03
2022-12-28T01:55:02.898Z,97162.44
2022-12-28T01:57:33.663Z,97162.25
2022-12-28T02:00:08.676Z,97147.75
2022-12-28T02:02:37.507Z,97139.69
2022-12-28T02:05:06.448Z,97133.91
2022-12-28T02:07:43.693Z,97124.28
2022-12-28T02:10:40.636Z,97114.25
2022-12-28T02:13:01.729Z,97107.78
2022-12-28T02:15:30.209Z,97110.31
2022-12-28T02:17:58.895Z,97107.59
2022-12-28T02:20:32.880Z,97106.09
2022-12-28T02:23:24.351Z,97101.44
2022-12-28T02:26:25.936Z,97102.84
2022-12-28T02:29:09.717Z,97098.84
2022-12-28T02:31:43.523Z,97096.88
2022-12-28T02:34:16.111Z,97086.19
2022-12-28T02:36:48.395Z,97085.81
2022-12-28T02:39:19.613Z,97089.06
2022-12-28T02:41:48.385Z,97085.81
2022-12-28T02:44:38.364Z,97079.44
2022-12-28T02:47:24.301Z,97073.81
2022-12-28T02:50:07.848Z,97079.69
2022-12-28T02:53:03.634Z,97081.47
2022-12-28T02:56:07.382Z,97083.13
2022-12-28T02:58:59.418Z,97078.22
2022-12-28T03:01:42.127Z,97074.63
2022-12-28T03:04:18.135Z,97057.97
2022-12-28T03:07:07.989Z,97056.94
2022-12-28T03:09:38.778Z,97055.25
2022-12-28T03:12:11.030Z,97054.41
2022-12-28T03:14:45.184Z,97047.13
2022-12-28T03:17:33.402Z,97035.91
2022-12-28T03:20:22.704Z,97028.56
2022-12-28T03:23:09.495Z,97030.69
2022-12-28T03:25:58.520Z,97031.41
2022-12-28T03:28:46.378Z,97025.03
2022-12-28T03:31:16.758Z,97016.53
2022-12-28T03:33:48.850Z,97016.44
2022-12-28T03:36:21.592Z,97009.22
2022-12-28T03:38:56.088Z,97025.75
2022-12-28T03:41:29.629Z,97012.47
2022-12-28T03:44:06.825Z,97014.09
2022-12-28T03:46:39.028Z,96992.13
2022-12-28T03:49:09.188Z,96998.91
2022-12-28T03:51:37.596Z,96984.28
2022-12-28T03:54:05.983Z,96985.22
2022-12-28T03:56:34.236Z,96978.50
2022-12-28T03:59:02.543Z,96975.06
2022-12-28T04:01:30.961Z,96984.88
2022-12-28T04:03:59.794Z,96980.78
2022-12-28T04:06:29.460Z,96986.84
2022-12-28T04:08:57.780Z,96978.03
2022-12-28T04:11:26.065Z,96972.78
2022-12-28T04:13:54.367Z,96973.31
2022-12-28T04:16:22.866Z,96980.84
2022-12-28T04:18:51.132Z,96966.78
2022-12-28T04:21:19.413Z,96968.34
2022-12-28T04:23:49.077Z,96969.50
2022-12-28T04:26:18.722Z,96964.88
2022-12-28T04:28:47.074Z,96960.75
2022-12-28T04:31:15.653Z,96963.94
2022-12-28T04:33:43.929Z,96962.75
2022-12-28T04:36:13.543Z,96965.34
2022-12-28T04:38:41.928Z,96954.19
2022-12-28T04:41:12.238Z,96955.53
2022-12-28T04:43:40.977Z,96961.16
2022-12-28T04:46:11.809Z,96960.09
2022-12-28T04:48:40.484Z,96954.50
2022-12-28T04:51:09.768Z,96955.69
2022-12-28T04:53:39.149Z,96963.69
2022-12-28T04:56:08.481Z,96956.59
2022-12-28T04:58:38.857Z,96957.47
2022-12-28T05:01:08.778Z,96962.59
2022-12-28T05:03:38.514Z,96962.84
2022-12-28T05:06:08.779Z,96964.13
2022-12-28T05:08:37.867Z,96959.94
2022-12-28T05:11:08.005Z,96947.13
2022-12-28T05:13:38.075Z,96945.81
2022-12-28T05:16:07.872Z,96960.59
2022-12-28T05:18:36.514Z,96961.78
2022-12-28T05:21:07.620Z,96954.03
2022-12-28T05:23:38.143Z,96956.00
2022-12-28T05:26:07.700Z,96950.28
2022-12-28T05:28:36.010Z,96946.16
2022-12-28T05:31:07.682Z,96935.53
2022-12-28T05:33:36.906Z,96917.09
2022-12-28T05:36:06.268Z,96906.41
2022-12-28T05:38:34.592Z,96901.41
2022-12-28T05:41:07.149Z,96910.63
2022-12-28T05:43:35.723Z,96904.16
2022-12-28T05:46:07.281Z,96911.38
2022-12-28T05:48:37.201Z,96913.97
2022-12-28T05:51:07.404Z,96923.66
2022-12-28T05:53:36.239Z,96942.63
2022-12-28T05:56:09.515Z,96929.28
2022-12-28T05:58:42.627Z,96933.81
2022-12-28T06:01:14.672Z,96925.31
2022-12-28T06:03:43.607Z,96934.09
2022-12-28T06:06:13.613Z,96928.53
2022-12-28T06:08:43.958Z,96924.34
2022-12-28T06:11:14.168Z,96924.63
2022-12-28T06:13:42.865Z,96919.53
2022-12-28T06:16:14.386Z,96915.22
2022-12-28T06:18:43.078Z,96920.13
2022-12-28T06:21:14.607Z,96916.19
2022-12-28T06:23:43.537Z,96911.41
2022-12-28T06:26:13.317Z,96920.00
2022-12-28T06:28:41.997Z,96921.19
2022-12-28T06:31:13.934Z,96924.03
2022-12-28T06:33:43.014Z,96920.25
2022-12-28T06:36:19.585Z,96919.16
2022-12-28T06:38:48.966Z,96921.25
2022-12-28T06:41:18.551Z,96919.16
2022-12-28T06:43:47.472Z,96915.47
2022-12-28T06:46:18.123Z,96918.56
2022-12-28T06:48:46.379Z,96919.75
2022-12-28T06:51:16.301Z,96908.34
2022-12-28T06:53:45.625Z,96912.28
2022-12-28T06:56:15.143Z,96909.91
2022-12-28T06:58:44.651Z,96913.91
2022-12-28T07:01:14.934Z,96911.78
2022-12-28T07:03:45.957Z,96910.44
2022-12-28T07:06:16.397Z,96913.19
2022-12-28T07:08:45.183Z,96908.19
2022-12-28T07:11:15.188Z,96907.59
2022-12-28T07:13:43.700Z,96914.66
2022-12-28T07:16:14.082Z,96914.31
2022-12-28T07:18:44.371Z,96905.56
2022-12-28T07:21:14.300Z,96905.81
2022-12-28T07:23:42.953Z,96913.06
2022-12-28T07:26:12.498Z,96905.31
2022-12-28T07:28:41.505Z,96912.13
2022-12-28T07:31:11.447Z,96911.78
2022-12-28T07:33:40.008Z,96915.16
2022-12-28T07:36:12.028Z,96909.50
2022-12-28T07:38:40.432Z,96906.34
2022-12-28T07:41:10.193Z,96905.94
2022-12-28T07:43:47.610Z,96915.00
2022-12-28T07:46:18.985Z,96926.69
2022-12-28T07:48:47.952Z,96927.78
2022-12-28T07:51:19.465Z,96922.16
2022-12-28T07:53:49.352Z,96916.78
2022-12-28T07:56:18.321Z,96912.03
2022-12-28T08:01:19.100Z,96908.19
2022-12-28T08:03:47.648Z,96913.28
2022-12-28T08:06:20.034Z,96908.81
2022-12-28T08:08:49.552Z,96904.38
2022-12-28T08:11:19.579Z,96900.44
2022-12-28T08:13:49.208Z,96899.19
2022-12-28T08:16:19.463Z,96897.78
2022-12-28T08:18:48.128Z,96900.84
2022-12-28T08:21:19.617Z,96890.00
2022-12-28T08:23:48.547Z,96882.00
2022-12-28T08:26:18.103Z,96883.28
2022-12-28T08:28:47.859Z,96892.91
2022-12-28T08:31:18.164Z,96899.53
2022-12-28T08:33:46.603Z,96896.81
2022-12-28T08:36:14.884Z,96895.72
2022-12-28T08:38:45.343Z,96892.75
2022-12-28T08:41:16.817Z,96892.53
2022-12-28T08:43:46.032Z,96902.69
2022-12-28T08:46:16.362Z,96896.66
2022-12-28T08:48:45.031Z,96893.19
2022-12-28T08:51:15.740Z,96886.28
2022-12-28T08:53:45.757Z,96880.25
2022-12-28T08:56:15.489Z,96875.56
2022-12-28T08:58:44.748Z,96878.22
2022-12-28T09:01:15.112Z,96871.13
2022-12-28T09:03:44.992Z,96875.94
2022-12-28T09:06:14.536Z,96879.22
2022-12-28T09:08:56.826Z,96874.47
2022-12-28T09:11:33.155Z,96861.19
2022-12-28T09:14:02.283Z,96860.44
2022-12-28T09:16:30.756Z,96864.16
2022-12-28T09:19:00.656Z,96857.09
2022-12-28T09:21:31.783Z,96857.38
2022-12-28T09:24:00.061Z,96849.44
2022-12-28T09:26:31.009Z,96858.19
2022-12-28T09:29:02.163Z,96852.19
2022-12-28T09:31:32.038Z,96846.34
2022-12-28T09:36:49.689Z,96838.81
2022-12-28T09:39:19.653Z,96844.00
2022-12-28T09:41:51.467Z,96833.59
2022-12-28T09:44:36.144Z,96831.69
2022-12-28T09:47:13.212Z,96829.97
2022-12-28T09:49:45.373Z,96828.81
2022-12-28T09:52:26.563Z,96827.53
2022-12-28T09:54:55.427Z,96821.03
2022-12-28T09:57:24.252Z,96821.22
2022-12-28T09:59:54.397Z,96817.41
2022-12-28T10:02:27.199Z,96807.19
2022-12-28T10:04:55.608Z,96807.53
2022-12-28T10:07:24.038Z,96800.03
2022-12-28T10:09:52.488Z,96800.31
2022-12-28T10:12:24.365Z,96794.34
2022-12-28T10:14:54.662Z,96790.47
2022-12-28T10:17:28.334Z,96787.69
2022-12-28T10:19:59.145Z,96785.44
2022-12-28T10:22:31.795Z,96790.44
2022-12-28T10:24:59.976Z,96777.03
2022-12-28T10:27:32.131Z,96778.41
2022-12-28T10:30:03.933Z,96779.19
2022-12-28T10:32:49.952Z,96775.16
2022-12-28T10:35:29.273Z,96770.69
2022-12-28T10:38:02.859Z,96759.66
2022-12-28T10:40:34.123Z,96765.03
2022-12-28T10:43:08.509Z,96765.47
2022-12-28T10:45:43.286Z,96757.63
2022-12-28T10:48:15.851Z,96749.28
2022-12-28T10:50:48.953Z,96749.31
2022-12-28T10:53:19.063Z,96744.38
2022-12-28T10:55:47.418Z,96743.63
2022-12-28T10:58:29.051Z,96737.56
2022-12-28T11:01:02.755Z,96737.63
2022-12-28T11:03:35.256Z,96734.28
2022-12-28T11:06:10.996Z,96729.50
2022-12-28T11:08:39.686Z,96726.53
2022-12-28T11:11:11.438Z,96723.41
2022-12-28T11:13:40.447Z,96722.53
2022-12-28T11:16:12.799Z,96718.00
2022-12-28T11:18:41.462Z,96718.22
2022-12-28T11:21:11.708Z,96715.63
2022-12-28T11:23:40.405Z,96715.47
2022-12-28T11:26:12.372Z,96713.88
2022-12-28T11:28:42.692Z,96707.94
2022-12-28T11:31:20.414Z,96707.09
2022-12-28T11:33:50.164Z,96710.22
2022-12-28T11:36:19.914Z,96695.06
2022-12-28T11:38:50.695Z,96701.09
2022-12-28T11:41:51.204Z,96696.16
2022-12-28T11:44:51.756Z,96696.94
2022-12-28T11:47:33.356Z,96690.53
2022-12-28T11:50:50.152Z,96684.25
2022-12-28T11:53:24.332Z,96685.72
2022-12-28T11:56:04.373Z,96688.97
2022-12-28T11:59:07.701Z,96674.28
2022-12-28T12:01:53.132Z,96668.31
2022-12-28T12:04:31.572Z,96670.06
2022-12-28T12:07:19.647Z,96667.88
2022-12-28T12:09:49.797Z,96664.19
2022-12-28T12:12:38.260Z,96641.50
2022-12-28T12:15:14.005Z,96651.00
2022-12-28T12:17:45.813Z,96639.34
2022-12-28T12:20:25.173Z,96631.53
2022-12-28T12:22:57.587Z,96631.03
2022-12-28T12:25:30.312Z,96621.88
2022-12-28T12:28:00.443Z,96619.50
2022-12-28T12:30:30.695Z,96618.31
2022-12-28T12:33:01.741Z,96614.34
2022-12-28T12:35:33.776Z,96608.91
2022-12-28T12:38:08.073Z,96604.94
2022-12-28T12:40:59.502Z,96586.16
2022-12-28T12:43:31.769Z,96590.13
2022-12-28T12:46:34.780Z,96589.66
2022-12-28T12:49:28.465Z,96583.19
2022-12-28T12:52:03.274Z,96569.72
2022-12-28T12:54:41.231Z,96571.38
2022-12-28T12:57:14.648Z,96564.75
2022-12-28T12:59:54.418Z,96559.25
2022-12-28T13:02:36.435Z,96561.00
2022-12-28T13:05:06.197Z,96560.19
2022-12-28T13:07:35.789Z,96549.38
2022-12-28T13:10:05.629Z,96546.28
2022-12-28T13:12:33.932Z,96540.06
2022-12-28T13:15:09.099Z,96535.53
2022-12-28T13:17:40.841Z,96542.06
2022-12-28T13:20:11.033Z,96544.47
2022-12-28T13:22:46.923Z,96534.22
2022-12-28T13:25:24.969Z,96531.28
2022-12-28T13:27:53.485Z,96535.34
2022-12-28T13:30:23.591Z,96530.22
2022-12-28T13:32:53.546Z,96530.44
2022-12-28T13:35:24.049Z,96535.31
2022-12-28T13:38:04.117Z,96537.13
2022-12-28T13:40:33.080Z,96535.84
2022-12-28T13:43:26.113Z,96534.81
2022-12-28T13:45:57.987Z,96535.50
2022-12-28T13:48:26.948Z,96544.28
2022-12-28T13:50:55.484Z,96544.75
2022-12-28T13:53:27.381Z,96548.41
2022-12-28T13:55:57.796Z,96533.06
2022-12-28T13:58:29.664Z,96534.78
2022-12-28T14:01:00.270Z,96531.44
2022-12-28T14:03:28.449Z,96530.81
2022-12-28T14:06:00.171Z,96527.28
2022-12-28T14:08:30.645Z,96525.63
2022-12-28T14:10:58.946Z,96531.28
2022-12-28T14:13:27.471Z,96518.44
2022-12-28T14:15:55.925Z,96520.47
2022-12-28T14:18:24.325Z,96518.50
2022-12-28T14:20:53.812Z,96519.16
2022-12-28T14:23:23.581Z,96515.50
2022-12-28T14:25:53.950Z,96514.53
2022-12-28T14:28:26.666Z,96513.19
2022-12-28T14:30:56.639Z,96522.50
2022-12-28T14:33:27.161Z,96511.31
2022-12-28T14:35:57.797Z,96513.91
2022-12-28T14:38:26.723Z,96507.97
2022-12-28T14:40:57.631Z,96499.94
2022-12-28T14:43:27.593Z,96505.69
2022-12-28T14:46:07.554Z,96512.81
2022-12-28T14:48:42.885Z,96513.16
2022-12-28T14:51:26.689Z,96513.22
2022-12-28T14:54:21.157Z,96504.22
2022-12-28T14:56:54.951Z,96503.94
2022-12-28T14:59:27.059Z,96507.28
2022-12-28T15:01:55.473Z,96501.41
2022-12-28T15:04:29.533Z,96504.16
2022-12-28T15:06:58.406Z,96496.03
2022-12-28T15:09:27.324Z,96495.50
2022-12-28T15:12:15.034Z,96486.25
2022-12-28T15:14:43.444Z,96488.06
2022-12-28T15:17:11.841Z,96494.72
2022-12-28T15:19:40.575Z,96491.09
2022-12-28T15:22:08.810Z,96488.59
2022-12-28T15:24:37.140Z,96493.75
2022-12-28T15:27:05.941Z,96500.59
2022-12-28T15:32:23.996Z,96488.50
2022-12-28T15:34:52.345Z,96484.03
2022-12-28T15:37:20.583Z,96491.00
2022-12-28T15:39:49.234Z,96484.38
2022-12-28T15:42:18.042Z,96476.22
2022-12-28T15:44:48.753Z,96479.22
2022-12-28T15:47:17.505Z,96473.41
2022-12-28T15:49:45.767Z,96473.41
2022-12-28T15:52:14.205Z,96479.22
2022-12-28T15:54:46.918Z,96467.81
2022-12-28T15:57:16.765Z,96467.81
2022-12-28T15:59:45.014Z,96473.41
2022-12-28T16:02:14.777Z,96478.59
2022-12-28T16:04:43.375Z,96465.47
2022-12-28T16:07:11.695Z,96470.75
2022-12-28T16:09:39.996Z,96467.44
2022-12-28T16:12:08.669Z,96466.31
2022-12-28T16:14:36.976Z,96463.81
2022-12-28T16:17:05.182Z,96478.31
2022-12-28T16:19:34.769Z,96481.94
2022-12-28T16:22:02.993Z,96471.84
2022-12-28T16:24:31.351Z,96479.66
2022-12-28T16:26:59.571Z,96482.50
2022-12-28T16:29:27.855Z,96481.31
2022-12-28T16:34:43.639Z,96481.44
2022-12-28T16:37:11.957Z,96481.94
2022-12-28T16:39:40.245Z,96482.31
2022-12-28T16:42:08.633Z,96480.75
2022-12-28T16:44:37.408Z,96478.34
2022-12-28T16:47:06.444Z,96475.19
2022-12-28T16:49:34.711Z,96473.34
2022-12-28T16:52:04.496Z,96472.00
2022-12-28T16:54:32.896Z,96470.38
2022-12-28T16:57:01.511Z,96465.38
2022-12-28T16:59:30.409Z,96458.22
2022-12-28T17:02:00.351Z,96459.19
2022-12-28T17:04:29.154Z,96454.75
2022-12-28T17:06:58.056Z,96455.66
2022-12-28T17:09:28.222Z,96453.38
2022-12-28T17:11:56.902Z,96449.84
2022-12-28T17:14:36.829Z,96450.59
2022-12-28T17:17:06.278Z,96450.19
2022-12-28T17:19:35.412Z,96458.56
2022-12-28T17:22:56.493Z,96445.38
2022-12-28T17:25:26.155Z,96443.38
2022-12-28T17:27:54.879Z,96452.31
2022-12-28T17:30:23.214Z,96452.31
2022-12-28T17:32:51.484Z,96446.16
2022-12-28T17:35:19.815Z,96437.22
2022-12-28T17:37:48.083Z,96443.13
2022-12-28T17:40:16.347Z,96444.00
2022-12-28T17:42:46.032Z,96454.78
2022-12-28T17:45:14.329Z,96456.94
2022-12-28T17:47:42.674Z,96444.69
2022-12-28T17:50:11.368Z,96441.59
2022-12-28T17:52:40.213Z,96441.69
2022-12-28T17:55:11.022Z,96445.28
2022-12-28T17:57:39.331Z,96443.31
2022-12-28T18:00:10.997Z,96449.63
2022-12-28T18:02:39.526Z,96442.69
2022-12-28T18:05:08.724Z,96443.94
2022-12-28T18:07:36.976Z,96434.00
2022-12-28T18:10:05.968Z,96442.44
2022-12-28T18:12:34.263Z,96440.13
2022-12-28T18:15:02.517Z,96439.94
2022-12-28T18:17:32.274Z,96437.50
2022-12-28T18:20:00.508Z,96437.88
2022-12-28T18:22:28.828Z,96440.09
2022-12-28T18:24:57.044Z,96436.22
2022-12-28T18:27:25.305Z,96429.00
2022-12-28T18:29:53.616Z,96427.38
2022-12-28T18:32:21.916Z,96440.25
2022-12-28T18:34:51.600Z,96437.78
2022-12-28T18:37:19.885Z,96433.44
2022-12-28T18:39:48.185Z,96428.06
2022-12-28T18:42:18.273Z,96427.50
2022-12-28T18:44:47.061Z,96421.53
2022-12-28T18:47:15.678Z,96417.69
2022-12-28T18:49:47.282Z,96419.06
2022-12-28T18:52:17.692Z,96418.50
2022-12-28T18:54:45.972Z,96424.44
2022-12-28T18:57:14.259Z,96420.00
2022-12-28T18:59:42.698Z,96417.81
2022-12-28T19:02:17.621Z,96412.53
2022-12-28T19:04:48.157Z,96409.34
2022-12-28T19:07:17.955Z,96413.75
2022-12-28T19:10:12.447Z,96404.53
2022-12-28T19:12:42.519Z,96401.19
2022-12-28T19:15:11.971Z,96407.66
2022-12-28T19:17:40.439Z,96415.31
2022-12-28T19:20:09.710Z,96404.91
2022-12-28T19:22:39.295Z,96400.09
2022-12-28T19:25:08.727Z,96390.50
2022-12-28T19:27:37.388Z,96387.91
2022-12-28T19:30:06.280Z,96392.44
2022-12-28T19:32:34.578Z,96389.69
2022-12-28T19:35:02.798Z,96385.50
2022-12-28T19:37:31.073Z,96386.47
2022-12-28T19:40:01.148Z,96379.56
2022-12-28T19:42:30.151Z,96382.19
2022-12-28T19:44:58.414Z,96384.22
2022-12-28T19:47:26.703Z,96384.56
2022-12-28T19:49:54.977Z,96377.59
2022-12-28T19:52:23.322Z,96370.25
2022-12-28T19:54:51.546Z,96371.13
2022-12-28T19:57:21.160Z,96360.72
2022-12-28T19:59:49.463Z,96356.81
2022-12-28T20:02:18.247Z,96344.34
2022-12-28T20:04:46.955Z,96351.34
2022-12-28T20:07:15.239Z,96343.84
2022-12-28T20:09:43.813Z,96333.47
2022-12-28T20:12:12.114Z,96339.09
2022-12-28T20:14:41.716Z,96332.28
2022-12-28T20:17:10.249Z,96334.00
2022-12-28T20:19:38.673Z,96338.28
2022-12-28T20:22:06.951Z,96345.25
2022-12-28T20:24:35.248Z,96345.53
2022-12-28T20:27:03.539Z,96339.69
2022-12-28T20:29:32.466Z,96323.09
2022-12-28T20:32:02.272Z,96328.25
2022-12-28T20:34:30.763Z,96333.47
2022-12-28T20:36:59.119Z,96321.00
2022-12-28T20:39:27.511Z,96320.59
2022-12-28T20:42:13.276Z,96320.59
2022-12-28T20:44:41.743Z,96323.22
2022-12-28T20:47:11.980Z,96316.59
2022-12-28T20:49:40.394Z,96316.34
2022-12-28T20:52:08.805Z,96319.47
2022-12-28T20:54:37.297Z,96318.66
2022-12-28T20:57:05.590Z,96313.50
2022-12-28T20:59:34.591Z,96314.59
2022-12-28T21:02:03.122Z,96310.16
2022-12-28T21:04:33.244Z,96312.97
2022-12-28T21:07:01.646Z,96316.41
2022-12-28T21:09:29.900Z,96300.50
2022-12-28T21:11:58.259Z,96296.13
2022-12-28T21:14:26.543Z,96294.59
2022-12-28T21:16:54.926Z,96290.41
2022-12-28T21:19:23.542Z,96287.78
2022-12-28T21:21:53.208Z,96282.94
2022-12-28T21:24:21.468Z,96277.94
2022-12-28T21:26:49.707Z,96281.38
2022-12-28T21:29:24.005Z,96272.22
2022-12-28T21:31:54.551Z,96270.19
2022-12-28T21:34:23.741Z,96269.31
2022-12-28T21:36:54.135Z,96263.09
2022-12-28T21:39:22.584Z,96259.78
2022-12-28T21:41:50.992Z,96264.34
2022-12-28T21:44:21.489Z,96254.13
2022-12-28T21:46:51.360Z,96265.38
2022-12-28T21:49:20.176Z,96254.03
2022-12-28T21:51:48.663Z,96259.41
2022-12-28T21:54:19.840Z,96253.44
2022-12-28T21:56:51.126Z,96251.91
2022-12-28T21:59:19.802Z,96257.47
2022-12-28T22:02:05.903Z,96250.69
2022-12-28T22:05:02.899Z,96244.56
2022-12-28T22:07:31.964Z,96251.50
2022-12-28T22:10:19.348Z,96249.59
2022-12-28T22:12:47.721Z,96249.88
2022-12-28T22:15:36.248Z,96245.69
2022-12-28T22:18:06.833Z,96248.88
2022-12-28T22:20:35.991Z,96247.22
2022-12-28T22:23:04.852Z,96253.06
2022-12-28T22:25:34.661Z,96246.41
2022-12-28T22:28:03.418Z,96256.25
2022-12-28T22:30:32.279Z,96243.91
2022-12-28T22:33:00.617Z,96245.88
2022-12-28T22:35:29.214Z,96245.28
2022-12-28T22:37:57.496Z,96240.28
2022-12-28T22:40:26.067Z,96236.84
2022-12-28T22:42:55.768Z,96230.47
2022-12-28T22:45:24.906Z,96230.03
2022-12-28T22:47:59.176Z,96227.41
2022-12-28T22:50:28.661Z,96230.19
2022-12-28T22:52:57.340Z,96239.47
2022-12-28T22:55:25.634Z,96234.66
2022-12-28T22:57:55.309Z,96212.91
2022-12-28T23:00:23.855Z,96223.69
2022-12-28T23:02:52.210Z,96215.50
2022-12-28T23:05:20.730Z,96211.91
2022-12-28T23:07:49.059Z,96213.16
2022-12-28T23:10:17.420Z,96208.88
2022-12-28T23:12:45.733Z,96199.72
2022-12-28T23:15:19.436Z,96192.91
2022-12-28T23:17:48.961Z,96195.84
2022-12-28T23:20:35.528Z,96200.44
2022-12-28T23:23:21.421Z,96191.28
2022-12-28T23:26:07.106Z,96192.63
2022-12-28T23:28:36.890Z,96196.44
2022-12-28T23:31:06.808Z,96178.00
2022-12-28T23:33:36.699Z,96184.97
2022-12-28T23:36:05.768Z,96183.97
2022-12-28T23:38:34.326Z,96180.06
2022-12-28T23:41:23.836Z,96169.47
2022-12-28T23:43:52.189Z,96171.81
2022-12-28T23:46:21.912Z,96170.97
2022-12-28T23:48:50.224Z,96164.75
2022-12-28T23:51:18.556Z,96166.28
2022-12-28T23:53:46.884Z,96162.97
2022-12-28T23:56:15.191Z,96161.72
2022-12-28T23:58:43.549Z,96164.19
